sensor_id;sensor_type;location;lat;lon;timestamp;P1;P2;P0
45112;PMS5003;30873;53.908;27.576;2023-06-19T00:02:34;35;32.1;21.8
45112;PMS5003;30873;53.908;27.576;2023-06-19T00:07:16;38.5;33.1;22.3
45112;PMS5003;30873;53.908;27.576;2023-06-19T00:12:06;37.5;33.7;22.2
45112;PMS5003;30873;53.908;27.576;2023-06-19T00:17:06;35.7;32.6;21.3
45112;PMS5003;30873;53.908;27.576;2023-06-19T00:22:34;37.4;34.1;22.6
45112;PMS5003;30873;53.908;27.576;2023-06-19T00:27:18;36;33.5;22.1
45112;PMS5003;30873;53.908;27.576;2023-06-19T00:32:22;38.9;33.9;22
45112;PMS5003;30873;53.908;27.576;2023-06-19T00:36:42;38.2;33.6;21.7
45112;PMS5003;30873;53.908;27.576;2023-06-19T00:42:34;36.8;33.7;22.3
45112;PMS5003;30873;53.908;27.576;2023-06-19T00:47:01;37.8;33.9;22.7
45112;PMS5003;30873;53.908;27.576;2023-06-19T00:51:44;37;33.4;22.3
45112;PMS5003;30873;53.908;27.576;2023-06-19T00:56:42;40.2;34.5;22.5
45112;PMS5003;30873;53.908;27.576;2023-06-19T01:02:32;35.5;32.6;21.7
45112;PMS5003;30873;53.908;27.576;2023-06-19T01:07:11;37.2;33.9;22.2
45112;PMS5003;30873;53.908;27.576;2023-06-19T01:12:23;39;34.4;22.5
45112;PMS5003;30873;53.908;27.576;2023-06-19T01:16:42;37.4;33.3;22.3
45112;PMS5003;30873;53.908;27.576;2023-06-19T01:22:34;38.2;34.3;22.7
45112;PMS5003;30873;53.908;27.576;2023-06-19T01:27:18;39;34.3;22.5
45112;PMS5003;30873;53.908;27.576;2023-06-19T01:32:36;38.1;34.1;21.8
45112;PMS5003;30873;53.908;27.576;2023-06-19T01:36:42;39.7;34.3;21.6
45112;PMS5003;30873;53.908;27.576;2023-06-19T01:42:16;37.6;34.1;22.2
45112;PMS5003;30873;53.908;27.576;2023-06-19T01:47:09;38;34.3;21.9
45112;PMS5003;30873;53.908;27.576;2023-06-19T01:52:32;37.6;33.3;22.6
45112;PMS5003;30873;53.908;27.576;2023-06-19T01:56:50;38.1;33.7;22.4
45112;PMS5003;30873;53.908;27.576;2023-06-19T02:02:18;40.1;34.6;23.1
45112;PMS5003;30873;53.908;27.576;2023-06-19T02:07:22;38.9;34.4;22.4
45112;PMS5003;30873;53.908;27.576;2023-06-19T02:12:34;38.7;34.4;22.4
45112;PMS5003;30873;53.908;27.576;2023-06-19T02:16:50;39.1;34.5;23.2
45112;PMS5003;30873;53.908;27.576;2023-06-19T02:22:17;40.2;35;22.9
45112;PMS5003;30873;53.908;27.576;2023-06-19T02:27:22;40.9;35.8;23
45112;PMS5003;30873;53.908;27.576;2023-06-19T02:32:34;40.1;34.8;22.7
45112;PMS5003;30873;53.908;27.576;2023-06-19T02:36:42;41.1;35.2;23.4
45112;PMS5003;30873;53.908;27.576;2023-06-19T02:41:44;40.1;35;22.9
45112;PMS5003;30873;53.908;27.576;2023-06-19T02:47:20;40.4;35.8;23
45112;PMS5003;30873;53.908;27.576;2023-06-19T02:52:32;40.8;35.1;23.3
45112;PMS5003;30873;53.908;27.576;2023-06-19T02:56:42;41.8;35.1;23.2
45112;PMS5003;30873;53.908;27.576;2023-06-19T03:01:52;41.6;35.6;23.4
45112;PMS5003;30873;53.908;27.576;2023-06-19T03:07:14;42.2;36;23.8
45112;PMS5003;30873;53.908;27.576;2023-06-19T03:12:36;41.5;36;23.6
45112;PMS5003;30873;53.908;27.576;2023-06-19T03:16:50;43.6;35.9;23.6
45112;PMS5003;30873;53.908;27.576;2023-06-19T03:22:19;42.5;36.2;23.8
45112;PMS5003;30873;53.908;27.576;2023-06-19T03:26:58;42.9;36.2;24.2
45112;PMS5003;30873;53.908;27.576;2023-06-19T03:32:34;41.8;36.3;23.7
45112;PMS5003;30873;53.908;27.576;2023-06-19T03:36:56;42.9;36.5;23.8
45112;PMS5003;30873;53.908;27.576;2023-06-19T03:42:20;44.2;36.5;24.3
45112;PMS5003;30873;53.908;27.576;2023-06-19T03:47:24;44.5;37.5;24.8
45112;PMS5003;30873;53.908;27.576;2023-06-19T03:52:36;44.1;37.8;24.3
45112;PMS5003;30873;53.908;27.576;2023-06-19T03:56:42;44.7;37.4;24
45112;PMS5003;30873;53.908;27.576;2023-06-19T04:02:20;48.6;39.6;25.4
45112;PMS5003;30873;53.908;27.576;2023-06-19T04:06:44;45.6;37.7;24.6
45112;PMS5003;30873;53.908;27.576;2023-06-19T04:12:34;47.6;38.3;24.1
45112;PMS5003;30873;53.908;27.576;2023-06-19T04:16:42;47.3;37.7;24
45112;PMS5003;30873;53.908;27.576;2023-06-19T04:22:10;48.1;39.5;24.8
45112;PMS5003;30873;53.908;27.576;2023-06-19T04:27:20;47;38.7;24.8
45112;PMS5003;30873;53.908;27.576;2023-06-19T04:32:34;48.2;39.2;25.5
45112;PMS5003;30873;53.908;27.576;2023-06-19T04:36:52;50.1;40.6;26.4
45112;PMS5003;30873;53.908;27.576;2023-06-19T04:42:20;51.7;42.4;27.1
45112;PMS5003;30873;53.908;27.576;2023-06-19T04:47:36;49.8;40.6;25.8
45112;PMS5003;30873;53.908;27.576;2023-06-19T04:52:38;51.5;41.3;26.2
45112;PMS5003;30873;53.908;27.576;2023-06-19T04:57:08;49;40.3;25.5
45112;PMS5003;30873;53.908;27.576;2023-06-19T05:02:22;51;41.4;25.9
45112;PMS5003;30873;53.908;27.576;2023-06-19T05:07:22;50.1;40.3;25.7
45112;PMS5003;30873;53.908;27.576;2023-06-19T05:12:35;49.6;40.4;26.2
45112;PMS5003;30873;53.908;27.576;2023-06-19T05:16:43;49.8;40.1;26.2
45112;PMS5003;30873;53.908;27.576;2023-06-19T05:22:08;50;40.7;26.1
45112;PMS5003;30873;53.908;27.576;2023-06-19T05:27:24;50.4;41.1;26.5
45112;PMS5003;30873;53.908;27.576;2023-06-19T05:32:22;52.8;42.6;27.6
45112;PMS5003;30873;53.908;27.576;2023-06-19T05:37:24;51.3;41.6;27
45112;PMS5003;30873;53.908;27.576;2023-06-19T05:42:22;53.9;43.2;27.6
45112;PMS5003;30873;53.908;27.576;2023-06-19T05:47:24;51.3;41.9;26.5
45112;PMS5003;30873;53.908;27.576;2023-06-19T05:52:38;51.2;41.7;27.3
45112;PMS5003;30873;53.908;27.576;2023-06-19T05:56:52;53.1;42.7;27.7
45112;PMS5003;30873;53.908;27.576;2023-06-19T06:01:54;50.1;41.5;26.8
45112;PMS5003;30873;53.908;27.576;2023-06-19T06:07:24;51.2;42.2;27.2
45112;PMS5003;30873;53.908;27.576;2023-06-19T06:12:38;50;41.6;27.3
45112;PMS5003;30873;53.908;27.576;2023-06-19T06:17:08;52.9;42.2;27.6
45112;PMS5003;30873;53.908;27.576;2023-06-19T06:22:22;50.5;40.9;27.1
45112;PMS5003;30873;53.908;27.576;2023-06-19T06:27:10;51;41.9;27.5
45112;PMS5003;30873;53.908;27.576;2023-06-19T06:32:38;51.1;41.6;26.8
45112;PMS5003;30873;53.908;27.576;2023-06-19T06:37:08;50.9;41.5;27.2
45112;PMS5003;30873;53.908;27.576;2023-06-19T06:42:22;49.9;40.7;26.3
45112;PMS5003;30873;53.908;27.576;2023-06-19T06:46:54;50;41.1;26.2
45112;PMS5003;30873;53.908;27.576;2023-06-19T06:52:22;50.2;41.6;26.6
45112;PMS5003;30873;53.908;27.576;2023-06-19T06:56:43;49.2;41.2;26.2
45112;PMS5003;30873;53.908;27.576;2023-06-19T07:01:44;50;41.2;26.3
45112;PMS5003;30873;53.908;27.576;2023-06-19T07:07:22;50;41.1;26.9
45112;PMS5003;30873;53.908;27.576;2023-06-19T07:12:35;49.6;40.2;26.4
45112;PMS5003;30873;53.908;27.576;2023-06-19T07:17:20;49.1;40.6;26.2
45112;PMS5003;30873;53.908;27.576;2023-06-19T07:21:52;48.1;39;25.6
45112;PMS5003;30873;53.908;27.576;2023-06-19T07:27:24;45;37.5;24.4
45112;PMS5003;30873;53.908;27.576;2023-06-19T07:32:35;46.6;38.4;25.1
45112;PMS5003;30873;53.908;27.576;2023-06-19T07:36:58;45.7;37.8;24.8
45112;PMS5003;30873;53.908;27.576;2023-06-19T07:42:11;45.7;37.6;25
45112;PMS5003;30873;53.908;27.576;2023-06-19T07:47:23;45;37;24.3
45112;PMS5003;30873;53.908;27.576;2023-06-19T07:52:34;45.8;38.4;25.1
45112;PMS5003;30873;53.908;27.576;2023-06-19T07:56:50;47.4;39.5;25.8
45112;PMS5003;30873;53.908;27.576;2023-06-19T08:02:19;61.6;52.1;38.9
45112;PMS5003;30873;53.908;27.576;2023-06-19T08:07:09;54.4;44.4;31
45112;PMS5003;30873;53.908;27.576;2023-06-19T08:12:33;51.2;41.7;28.4
45112;PMS5003;30873;53.908;27.576;2023-06-19T08:16:43;49;40.6;26.8
45112;PMS5003;30873;53.908;27.576;2023-06-19T08:22:17;50.1;41.2;27.4
45112;PMS5003;30873;53.908;27.576;2023-06-19T08:27:23;47;38.7;25.7
45112;PMS5003;30873;53.908;27.576;2023-06-19T08:32:33;46.5;39.1;25.5
45112;PMS5003;30873;53.908;27.576;2023-06-19T08:37:07;46.5;38.7;25.8
45112;PMS5003;30873;53.908;27.576;2023-06-19T08:41:53;47.2;39.1;25.5
45112;PMS5003;30873;53.908;27.576;2023-06-19T08:46:45;46.1;38.5;25.8
45112;PMS5003;30873;53.908;27.576;2023-06-19T08:52:33;50.9;44;32.3
45112;PMS5003;30873;53.908;27.576;2023-06-19T08:57:07;51;42.3;29
45112;PMS5003;30873;53.908;27.576;2023-06-19T09:02:19;46.3;39;26.1
45112;PMS5003;30873;53.908;27.576;2023-06-19T09:07:23;46.1;38.3;26.9
45112;PMS5003;30873;53.908;27.576;2023-06-19T09:12:21;42.8;36.3;24.3
45112;PMS5003;30873;53.908;27.576;2023-06-19T09:16:59;45.1;38.4;26.5
45112;PMS5003;30873;53.908;27.576;2023-06-19T09:22:35;42.9;36;24.2
45112;PMS5003;30873;53.908;27.576;2023-06-19T09:27:23;46;38.2;25.3
45112;PMS5003;30873;53.908;27.576;2023-06-19T09:32:23;44.6;37.4;24.9
45112;PMS5003;30873;53.908;27.576;2023-06-19T09:36:43;46.1;38;25.3
45112;PMS5003;30873;53.908;27.576;2023-06-19T09:41:45;43.8;36.4;24.4
45112;PMS5003;30873;53.908;27.576;2023-06-19T09:47:23;44.6;37.4;24.6
45112;PMS5003;30873;53.908;27.576;2023-06-19T09:52:35;43.2;35.9;24.1
45112;PMS5003;30873;53.908;27.576;2023-06-19T09:57:23;43.3;36.1;24.2
45112;PMS5003;30873;53.908;27.576;2023-06-19T10:02:09;41.9;35;23.3
45112;PMS5003;30873;53.908;27.576;2023-06-19T10:07:23;42.2;35.7;23.8
45112;PMS5003;30873;53.908;27.576;2023-06-19T10:12:35;40.6;34.2;22.9
45112;PMS5003;30873;53.908;27.576;2023-06-19T10:16:51;38.3;33.9;22.4
45112;PMS5003;30873;53.908;27.576;2023-06-19T10:22:19;36.2;32.6;22.6
45112;PMS5003;30873;53.908;27.576;2023-06-19T10:27:23;37.7;33.5;23.5
45112;PMS5003;30873;53.908;27.576;2023-06-19T10:32:35;36.8;32.6;22.4
45112;PMS5003;30873;53.908;27.576;2023-06-19T10:36:43;38.1;33.1;22.3
45112;PMS5003;30873;53.908;27.576;2023-06-19T10:42:04;38.4;33.3;22.4
45112;PMS5003;30873;53.908;27.576;2023-06-19T10:47:23;38.6;33.7;23
45112;PMS5003;30873;53.908;27.576;2023-06-19T10:52:35;39.7;33.9;22.7
45112;PMS5003;30873;53.908;27.576;2023-06-19T10:57:03;34.6;31.4;21.7
45112;PMS5003;30873;53.908;27.576;2023-06-19T11:02:19;34.6;31.3;21.5
45112;PMS5003;30873;53.908;27.576;2023-06-19T11:06:45;27.4;26.4;18.1
45112;PMS5003;30873;53.908;27.576;2023-06-19T11:12:35;28.7;26.3;18.7
45112;PMS5003;30873;53.908;27.576;2023-06-19T11:16:53;30.7;29.1;20.6
45112;PMS5003;30873;53.908;27.576;2023-06-19T11:22:09;33.3;30.3;20.6
45112;PMS5003;30873;53.908;27.576;2023-06-19T11:27:23;36.2;32.6;23.2
45112;PMS5003;30873;53.908;27.576;2023-06-19T11:32:23;30.4;28.5;19.2
45112;PMS5003;30873;53.908;27.576;2023-06-19T11:36:59;33.4;30.9;21.2
45112;PMS5003;30873;53.908;27.576;2023-06-19T11:42:17;33.6;30.8;20.5
45112;PMS5003;30873;53.908;27.576;2023-06-19T11:47:23;34.8;31.1;21.2
45112;PMS5003;30873;53.908;27.576;2023-06-19T11:52:23;35;31.1;21.4
45112;PMS5003;30873;53.908;27.576;2023-06-19T11:56:43;33.6;30.8;21
45112;PMS5003;30873;53.908;27.576;2023-06-19T12:02:12;28.5;26.9;18.4
45112;PMS5003;30873;53.908;27.576;2023-06-19T12:07:23;25.4;24;17.6
45112;PMS5003;30873;53.908;27.576;2023-06-19T12:12:35;24.9;23.7;16.4
45112;PMS5003;30873;53.908;27.576;2023-06-19T12:17:07;25.7;24.5;17.6
45112;PMS5003;30873;53.908;27.576;2023-06-19T12:22:17;25.5;23.8;17.3
45112;PMS5003;30873;53.908;27.576;2023-06-19T12:27:37;27.3;25.8;17.9
45112;PMS5003;30873;53.908;27.576;2023-06-19T12:32:37;25.8;24.4;17.3
45112;PMS5003;30873;53.908;27.576;2023-06-19T12:37:07;28.1;26.5;18.5
45112;PMS5003;30873;53.908;27.576;2023-06-19T12:41:55;29.4;27;19.3
45112;PMS5003;30873;53.908;27.576;2023-06-19T12:47:23;27.8;26.6;19.5
45112;PMS5003;30873;53.908;27.576;2023-06-19T12:52:37;31.7;29.3;20.6
45112;PMS5003;30873;53.908;27.576;2023-06-19T12:56:43;27.1;26.7;19
45112;PMS5003;30873;53.908;27.576;2023-06-19T13:02:19;29.5;27.9;19.3
45112;PMS5003;30873;53.908;27.576;2023-06-19T13:07:23;26.4;25.6;19.3
45112;PMS5003;30873;53.908;27.576;2023-06-19T13:12:23;25.2;24.1;18.3
45112;PMS5003;30873;53.908;27.576;2023-06-19T13:16:43;24;23;17
45112;PMS5003;30873;53.908;27.576;2023-06-19T13:21:45;25.1;24.3;18
45112;PMS5003;30873;53.908;27.576;2023-06-19T13:27:09;28.5;26.8;19.9
45112;PMS5003;30873;53.908;27.576;2023-06-19T13:31:53;23.3;22.9;16.9
45112;PMS5003;30873;53.908;27.576;2023-06-19T13:37:23;24.9;23.8;17.5
45112;PMS5003;30873;53.908;27.576;2023-06-19T13:42:21;27.4;25.8;19.5
45112;PMS5003;30873;53.908;27.576;2023-06-19T13:46:53;25;23.8;17.8
45112;PMS5003;30873;53.908;27.576;2023-06-19T13:52:37;26.1;25.3;18.1
45112;PMS5003;30873;53.908;27.576;2023-06-19T13:56:59;26;25.2;18.3
45112;PMS5003;30873;53.908;27.576;2023-06-19T14:02:19;24.1;23.5;17.1
45112;PMS5003;30873;53.908;27.576;2023-06-19T14:07:23;24.4;23.4;16.9
45112;PMS5003;30873;53.908;27.576;2023-06-19T14:12:37;24.7;23.5;17
45112;PMS5003;30873;53.908;27.576;2023-06-19T14:16:43;27.9;25.7;18.3
45112;PMS5003;30873;53.908;27.576;2023-06-19T14:22:19;30;28.1;19.2
45112;PMS5003;30873;53.908;27.576;2023-06-19T14:27:23;33.3;29.8;20.2
45112;PMS5003;30873;53.908;27.576;2023-06-19T14:32:37;32.2;29.5;20.4
45112;PMS5003;30873;53.908;27.576;2023-06-19T14:36:43;30.3;28.1;20.1
45112;PMS5003;30873;53.908;27.576;2023-06-19T14:42:19;37.3;32.3;22.7
45112;PMS5003;30873;53.908;27.576;2023-06-19T14:47:23;30.9;28.6;19.7
45112;PMS5003;30873;53.908;27.576;2023-06-19T14:52:37;28;26;17.1
45112;PMS5003;30873;53.908;27.576;2023-06-19T14:57:24;28;26.6;18.6
45112;PMS5003;30873;53.908;27.576;2023-06-19T15:02:19;31.2;28.4;20.2
45112;PMS5003;30873;53.908;27.576;2023-06-19T15:07:25;28.2;26.1;18.7
45112;PMS5003;30873;53.908;27.576;2023-06-19T15:12:39;18.7;17.8;12.6
45112;PMS5003;30873;53.908;27.576;2023-06-19T15:17:35;21.4;20;13.7
45112;PMS5003;30873;53.908;27.576;2023-06-19T15:22:21;24.3;23.2;16.9
45112;PMS5003;30873;53.908;27.576;2023-06-19T15:26:53;21.3;20.7;14.3
45112;PMS5003;30873;53.908;27.576;2023-06-19T15:32:05;23.2;22.1;15
45112;PMS5003;30873;53.908;27.576;2023-06-19T15:37:37;26.9;25.1;17.3
45112;PMS5003;30873;53.908;27.576;2023-06-19T15:42:39;28.5;26.9;18.3
45112;PMS5003;30873;53.908;27.576;2023-06-19T15:46:43;28.8;27;18.7
45112;PMS5003;30873;53.908;27.576;2023-06-19T15:51:43;29.1;27.3;18.9
45112;PMS5003;30873;53.908;27.576;2023-06-19T15:57:39;30;27.8;19.6
45112;PMS5003;30873;53.908;27.576;2023-06-19T16:02:39;30.7;28.5;19.7
45112;PMS5003;30873;53.908;27.576;2023-06-19T16:07:21;30.1;28.3;19.2
45112;PMS5003;30873;53.908;27.576;2023-06-19T16:12:05;30.4;28.4;19.1
45112;PMS5003;30873;53.908;27.576;2023-06-19T16:17:37;30.8;28.5;19.7
45112;PMS5003;30873;53.908;27.576;2023-06-19T16:22:21;31.8;29.5;19.6
45112;PMS5003;30873;53.908;27.576;2023-06-19T16:26:53;31.9;29.4;19.7
45112;PMS5003;30873;53.908;27.576;2023-06-19T16:31:53;31.9;29.7;20
45112;PMS5003;30873;53.908;27.576;2023-06-19T16:37:39;34.7;31.6;21.4
45112;PMS5003;30873;53.908;27.576;2023-06-19T16:42:21;38.6;33.7;23.1
45112;PMS5003;30873;53.908;27.576;2023-06-19T16:46:43;41.3;35.5;24.5
45112;PMS5003;30873;53.908;27.576;2023-06-19T16:51:53;52.2;43.4;31.2
45112;PMS5003;30873;53.908;27.576;2023-06-19T16:57:07;39.8;35.1;23.8
45112;PMS5003;30873;53.908;27.576;2023-06-19T17:02:19;34.9;31.5;20.9
45112;PMS5003;30873;53.908;27.576;2023-06-19T17:06:43;35.4;31.8;21.3
45112;PMS5003;30873;53.908;27.576;2023-06-19T17:12:05;36.8;32.5;21.5
45112;PMS5003;30873;53.908;27.576;2023-06-19T17:17:39;36.6;32.6;21.7
45112;PMS5003;30873;53.908;27.576;2023-06-19T17:22:21;36;31.7;21.1
45112;PMS5003;30873;53.908;27.576;2023-06-19T17:26:43;30.3;27.9;17.8
45112;PMS5003;30873;53.908;27.576;2023-06-19T17:31:43;31.8;27.9;18.6
45112;PMS5003;30873;53.908;27.576;2023-06-19T17:37:37;36;31.5;20.2
45112;PMS5003;30873;53.908;27.576;2023-06-19T17:42:19;36.8;32.8;21
45112;PMS5003;30873;53.908;27.576;2023-06-19T17:46:43;36.3;32.5;20.2
45112;PMS5003;30873;53.908;27.576;2023-06-19T17:52:01;35.1;32.3;20.8
45112;PMS5003;30873;53.908;27.576;2023-06-19T17:57:37;37.3;32.4;20.4
45112;PMS5003;30873;53.908;27.576;2023-06-19T18:02:19;35.9;32.1;20.9
45112;PMS5003;30873;53.908;27.576;2023-06-19T18:06:51;35.9;32.5;20.2
45112;PMS5003;30873;53.908;27.576;2023-06-19T18:12:01;35;31.9;20.8
45112;PMS5003;30873;53.908;27.576;2023-06-19T18:17:37;37.3;32.6;20.7
45112;PMS5003;30873;53.908;27.576;2023-06-19T18:22:17;38.2;33.3;22
45112;PMS5003;30873;53.908;27.576;2023-06-19T18:26:51;35.1;31.8;20.5
45112;PMS5003;30873;53.908;27.576;2023-06-19T18:32:01;36.5;31.9;20.6
45112;PMS5003;30873;53.908;27.576;2023-06-19T18:37:35;35.5;30.7;20.4
45112;PMS5003;30873;53.908;27.576;2023-06-19T18:42:19;36.1;31;21.2
45112;PMS5003;30873;53.908;27.576;2023-06-19T18:46:51;37.6;33.1;21.2
45112;PMS5003;30873;53.908;27.576;2023-06-19T18:52:03;36.3;32.8;20.6
45112;PMS5003;30873;53.908;27.576;2023-06-19T18:57:35;39.8;33.9;21.1
45112;PMS5003;30873;53.908;27.576;2023-06-19T19:02:19;37.3;33.7;21.7
45112;PMS5003;30873;53.908;27.576;2023-06-19T19:07:03;41;34.7;22.7
45112;PMS5003;30873;53.908;27.576;2023-06-19T19:12:37;42.3;35.9;22.7
45112;PMS5003;30873;53.908;27.576;2023-06-19T19:17:37;41.1;35.1;22.2
45112;PMS5003;30873;53.908;27.576;2023-06-19T19:22:39;41.4;35;22.2
45112;PMS5003;30873;53.908;27.576;2023-06-19T19:26:43;41.6;35;22.4
45112;PMS5003;30873;53.908;27.576;2023-06-19T19:32:39;43.5;35.9;23.4
45112;PMS5003;30873;53.908;27.576;2023-06-19T19:37:23;45.3;36.9;23.6
45112;PMS5003;30873;53.908;27.576;2023-06-19T19:42:39;44.3;37.2;23.1
45112;PMS5003;30873;53.908;27.576;2023-06-19T19:46:53;46.1;37.6;23.3
45112;PMS5003;30873;53.908;27.576;2023-06-19T19:52:39;47.7;38.8;23.7
45112;PMS5003;30873;53.908;27.576;2023-06-19T19:57:23;48.2;39.5;24.6
45112;PMS5003;30873;53.908;27.576;2023-06-19T20:02:17;47.1;39.1;23.9
45112;PMS5003;30873;53.908;27.576;2023-06-19T20:07:09;49;39.4;24.5
45112;PMS5003;30873;53.908;27.576;2023-06-19T20:12:37;46.5;38.5;24.2
45112;PMS5003;30873;53.908;27.576;2023-06-19T20:17:21;48.2;38.9;24.8
45112;PMS5003;30873;53.908;27.576;2023-06-19T20:22:37;49.4;39.7;25.1
45112;PMS5003;30873;53.908;27.576;2023-06-19T20:26:43;48.6;39.4;25.3
45112;PMS5003;30873;53.908;27.576;2023-06-19T20:32:37;51.1;41.1;25.9
45112;PMS5003;30873;53.908;27.576;2023-06-19T20:37:23;52.5;41.8;26.3
45112;PMS5003;30873;53.908;27.576;2023-06-19T20:42:21;52.6;42.4;25.8
45112;PMS5003;30873;53.908;27.576;2023-06-19T20:46:53;52.1;41.7;25.7
45112;PMS5003;30873;53.908;27.576;2023-06-19T20:52:37;52.7;41.8;26.2
45112;PMS5003;30873;53.908;27.576;2023-06-19T20:57:23;53.8;42.1;26.9
45112;PMS5003;30873;53.908;27.576;2023-06-19T21:02:39;51;41.5;26
45112;PMS5003;30873;53.908;27.576;2023-06-19T21:06:53;53.1;43;26.2
45112;PMS5003;30873;53.908;27.576;2023-06-19T21:12:39;53.7;43.3;27.1
45112;PMS5003;30873;53.908;27.576;2023-06-19T21:17:21;52.4;42.6;26.8
45112;PMS5003;30873;53.908;27.576;2023-06-19T21:22:35;54;43.5;26.7
45112;PMS5003;30873;53.908;27.576;2023-06-19T21:27:05;51.9;41.2;25.4
45112;PMS5003;30873;53.908;27.576;2023-06-19T21:32:37;53.9;43;27.3
45112;PMS5003;30873;53.908;27.576;2023-06-19T21:37:05;53.7;42.5;26.4
45112;PMS5003;30873;53.908;27.576;2023-06-19T21:42:37;53.2;42.4;27.3
45112;PMS5003;30873;53.908;27.576;2023-06-19T21:46:51;55.2;43.5;27.5
45112;PMS5003;30873;53.908;27.576;2023-06-19T21:52:37;55.5;43.6;27
45112;PMS5003;30873;53.908;27.576;2023-06-19T21:57:09;55.2;44.3;27.2
45112;PMS5003;30873;53.908;27.576;2023-06-19T22:02:37;54.9;44.5;27.7
45112;PMS5003;30873;53.908;27.576;2023-06-19T22:06:51;55.6;44.4;27.4
45112;PMS5003;30873;53.908;27.576;2023-06-19T22:12:35;55.8;45;27.5
45112;PMS5003;30873;53.908;27.576;2023-06-19T22:17:21;54.9;44.1;26.8
45112;PMS5003;30873;53.908;27.576;2023-06-19T22:22:35;55.9;44.8;27.6
45112;PMS5003;30873;53.908;27.576;2023-06-19T22:26:43;56.3;44.6;27.3
45112;PMS5003;30873;53.908;27.576;2023-06-19T22:32:35;55.5;44.2;27.1
45112;PMS5003;30873;53.908;27.576;2023-06-19T22:37:21;56.8;44.8;27.8
45112;PMS5003;30873;53.908;27.576;2023-06-19T22:42:37;53.9;43.1;26.2
45112;PMS5003;30873;53.908;27.576;2023-06-19T22:46:43;55.2;43.6;26.6
45112;PMS5003;30873;53.908;27.576;2023-06-19T22:52:37;54.7;43.6;26.8
45112;PMS5003;30873;53.908;27.576;2023-06-19T22:57:21;54.3;43.4;26.5
45112;PMS5003;30873;53.908;27.576;2023-06-19T23:02:35;53.6;43.2;27.2
45112;PMS5003;30873;53.908;27.576;2023-06-19T23:07:01;55.8;44.1;27.4
45112;PMS5003;30873;53.908;27.576;2023-06-19T23:12:33;55;43.3;27.1
45112;PMS5003;30873;53.908;27.576;2023-06-19T23:17:17;54.6;43;26.6
45112;PMS5003;30873;53.908;27.576;2023-06-19T23:22:19;54.8;43.2;26.1
45112;PMS5003;30873;53.908;27.576;2023-06-19T23:26:43;53.7;43.3;26.8
45112;PMS5003;30873;53.908;27.576;2023-06-19T23:32:19;55;43;26.8
45112;PMS5003;30873;53.908;27.576;2023-06-19T23:37:35;55.6;44.2;27.5
45112;PMS5003;30873;53.908;27.576;2023-06-19T23:41:43;55.6;44.6;27.9
45112;PMS5003;30873;53.908;27.576;2023-06-19T23:47:29;55.7;44.3;27.5
45112;PMS5003;30873;53.908;27.576;2023-06-19T23:52:17;54.9;43.7;27.1
45112;PMS5003;30873;53.908;27.576;2023-06-19T23:57:33;57.6;44.4;28.2
